Time;durP1;ratioP1;P1;durP2;ratioP2;P2;SDS_P1;SDS_P2;PMS_P1;PMS_P2;Temp;Humidity;BMP_temperature;BMP_pressure;BME280_temperature;BME280_humidity;BME280_pressure;Samples;Min_cycle;Max_cycle;Signal;HPM_P1;HPM_P2
2022/07/27 00:03:13;;;;;;;5.65;0.90;;;14.60;99.90;;;;;;7334273;32;20134;-64
2022/07/27 00:07:15;;;;;;;4.43;0.75;;;14.50;99.90;;;;;;7333982;32;20424;-64
2022/07/27 00:11:17;;;;;;;4.35;1.00;;;14.50;99.90;;;;;;7333062;32;20135;-62
2022/07/27 00:15:18;;;;;;;5.12;1.00;;;14.40;99.90;;;;;;7332480;32;20103;-62
2022/07/27 00:19:22;;;;;;;3.00;0.73;;;14.40;99.90;;;;;;7333280;32;20595;-62
2022/07/27 00:23:24;;;;;;;3.10;0.90;;;14.40;99.90;;;;;;7333885;32;20120;-62
2022/07/27 00:27:26;;;;;;;1.85;0.80;;;14.30;99.90;;;;;;7333447;32;20135;-62
2022/07/27 00:31:27;;;;;;;6.07;0.90;;;14.30;99.90;;;;;;7333008;32;20195;-62
2022/07/27 00:35:29;;;;;;;3.05;0.62;;;14.30;99.90;;;;;;7333705;32;20541;-62
2022/07/27 00:39:31;;;;;;;2.62;0.88;;;14.20;99.90;;;;;;7331763;32;20752;-62
2022/07/27 00:43:52;;;;;;;5.15;0.82;;;14.20;99.90;;;;;;7332899;32;20120;-62
2022/07/27 00:47:54;;;;;;;4.82;0.98;;;14.10;99.90;;;;;;7332236;32;20541;-61
2022/07/27 00:51:56;;;;;;;4.62;0.90;;;14.10;99.90;;;;;;7332940;32;20119;-62
2022/07/27 00:55:58;;;;;;;5.78;1.08;;;14.10;99.90;;;;;;7349019;32;20497;-62
2022/07/27 01:00:00;;;;;;;4.18;1.20;;;14.00;99.90;;;;;;7332886;32;20119;-62
2022/07/27 01:04:02;;;;;;;3.03;0.98;;;14.00;99.90;;;;;;7333146;32;20220;-62
2022/07/27 01:08:06;;;;;;;2.62;0.80;;;14.00;99.90;;;;;;7332614;32;20461;-62
2022/07/27 01:12:12;;;;;;;4.45;1.30;;;14.00;99.90;;;;;;7332692;32;20129;-62
2022/07/27 01:16:14;;;;;;;4.57;0.80;;;14.00;99.90;;;;;;7331880;32;20172;-62
2022/07/27 01:20:16;;;;;;;5.15;0.75;;;14.00;99.90;;;;;;7331771;32;20107;-62
2022/07/27 01:24:18;;;;;;;2.95;0.90;;;14.00;99.90;;;;;;7333012;32;20108;-62
2022/07/27 01:28:20;;;;;;;5.07;0.95;;;14.00;99.90;;;;;;7332005;32;20175;-62
2022/07/27 01:32:21;;;;;;;5.32;1.00;;;14.00;99.90;;;;;;7332498;32;20599;-62
2022/07/27 01:36:23;;;;;;;8.13;1.02;;;13.90;99.90;;;;;;7332746;32;20192;-62
2022/07/27 01:40:26;;;;;;;3.72;0.80;;;13.90;99.90;;;;;;7331717;32;20180;-62
2022/07/27 01:44:27;;;;;;;6.32;1.10;;;13.90;99.90;;;;;;7332484;32;20183;-61
2022/07/27 01:48:29;;;;;;;3.70;0.80;;;13.80;99.90;;;;;;7331237;32;20137;-63
2022/07/27 01:52:31;;;;;;;3.70;0.70;;;13.70;99.90;;;;;;7337205;32;20667;-61
2022/07/27 01:56:33;;;;;;;4.28;0.80;;;13.60;99.90;;;;;;7354751;32;20127;-62
2022/07/27 02:00:35;;;;;;;6.70;0.95;;;13.50;99.90;;;;;;7336352;32;20148;-62
2022/07/27 02:04:37;;;;;;;5.43;1.00;;;13.30;99.90;;;;;;7336819;32;20489;-62
2022/07/27 02:08:38;;;;;;;3.70;0.90;;;13.30;99.90;;;;;;7336126;32;20481;-62
2022/07/27 02:12:40;;;;;;;6.35;0.85;;;13.20;99.90;;;;;;7336085;32;20183;-62
2022/07/27 02:16:42;;;;;;;5.68;1.15;;;13.20;99.90;;;;;;7336734;32;20168;-62
2022/07/27 02:20:44;;;;;;;5.70;1.23;;;13.00;99.90;;;;;;7340140;32;20115;-62
2022/07/27 02:24:46;;;;;;;5.82;1.10;;;12.90;99.90;;;;;;7361631;32;20106;-62
2022/07/27 02:28:47;;;;;;;3.58;1.15;;;12.80;99.90;;;;;;7360914;32;20130;-62
2022/07/27 02:32:49;;;;;;;6.95;1.08;;;12.70;99.90;;;;;;7361644;32;20183;-62
2022/07/27 02:36:51;;;;;;;7.12;1.20;;;12.70;99.90;;;;;;7361625;32;20681;-62
2022/07/27 02:40:52;;;;;;;8.45;1.30;;;12.60;99.90;;;;;;7360643;32;20183;-62
2022/07/27 02:44:54;;;;;;;5.10;0.90;;;12.50;99.90;;;;;;7361271;32;20143;-62
2022/07/27 02:48:56;;;;;;;4.55;1.50;;;12.30;99.90;;;;;;7360118;32;20513;-61
2022/07/27 02:52:58;;;;;;;5.55;1.33;;;12.20;99.90;;;;;;7361206;32;20167;-62
2022/07/27 02:57:03;;;;;;;3.53;1.12;;;12.10;99.90;;;;;;7337691;32;20111;-62
2022/07/27 03:01:05;;;;;;;5.95;1.05;;;12.00;99.90;;;;;;7333698;32;20124;-62
2022/07/27 03:05:09;;;;;;;6.50;1.02;;;11.90;99.90;;;;;;7335012;32;20576;-62
2022/07/27 03:09:11;;;;;;;3.08;1.00;;;11.90;99.90;;;;;;7334266;32;20583;-63
2022/07/27 03:13:13;;;;;;;5.03;1.45;;;11.80;99.90;;;;;;7333807;32;20175;-63
2022/07/27 03:17:15;;;;;;;8.13;0.90;;;11.80;99.90;;;;;;7335324;32;20234;-62
2022/07/27 03:21:17;;;;;;;4.43;1.30;;;11.70;99.90;;;;;;7334112;32;20131;-62
2022/07/27 03:25:19;;;;;;;1.40;1.17;;;11.60;99.90;;;;;;7334801;32;20179;-63
2022/07/27 03:29:20;;;;;;;5.53;1.20;;;11.50;99.90;;;;;;7333901;32;20185;-62
2022/07/27 03:33:22;;;;;;;4.62;1.30;;;11.40;99.90;;;;;;7334285;32;20584;-62
2022/07/27 03:37:24;;;;;;;4.62;1.20;;;11.30;99.90;;;;;;7334588;32;20180;-62
2022/07/27 03:41:26;;;;;;;5.57;1.40;;;11.30;99.90;;;;;;7333754;32;20133;-62
2022/07/27 03:45:28;;;;;;;2.70;1.30;;;11.30;99.90;;;;;;7334549;32;20116;-61
2022/07/27 03:49:30;;;;;;;5.43;1.20;;;11.20;99.90;;;;;;7333632;32;20287;-62
2022/07/27 03:53:32;;;;;;;5.87;1.25;;;11.20;99.90;;;;;;7334930;32;20237;-62
2022/07/27 03:57:34;;;;;;;2.87;1.10;;;11.10;99.90;;;;;;7349851;32;20123;-62
2022/07/27 04:01:35;;;;;;;5.93;1.37;;;11.00;99.90;;;;;;7333874;32;20119;-63
2022/07/27 04:05:37;;;;;;;5.18;1.30;;;10.90;99.90;;;;;;7334226;32;20111;-62
2022/07/27 04:09:39;;;;;;;4.45;1.20;;;10.80;99.90;;;;;;7341072;32;20617;-62
2022/07/27 04:13:45;;;;;;;5.22;1.62;;;10.80;99.90;;;;;;7356254;32;20107;-63
2022/07/27 04:17:48;;;;;;;3.92;1.73;;;10.80;99.90;;;;;;7358162;32;20178;-62
2022/07/27 04:21:58;;;;;;;5.82;1.40;;;10.80;99.90;;;;;;7357728;32;20135;-62
2022/07/27 04:25:59;;;;;;;3.87;1.15;;;10.80;99.90;;;;;;7358686;32;20182;-62
2022/07/27 04:30:02;;;;;;;3.92;1.20;;;10.80;99.90;;;;;;7357632;32;20202;-62
2022/07/27 04:34:10;;;;;;;4.22;1.30;;;10.80;99.90;;;;;;7358899;32;20822;-62
2022/07/27 04:38:12;;;;;;;2.50;1.00;;;10.80;99.90;;;;;;7357964;32;20280;-62
2022/07/27 04:42:13;;;;;;;5.70;1.20;;;10.90;99.90;;;;;;7357811;32;20286;-62
2022/07/27 04:46:15;;;;;;;4.37;1.20;;;11.00;99.90;;;;;;7358225;32;20179;-66
2022/07/27 04:50:17;;;;;;;4.70;1.70;;;11.40;99.90;;;;;;7357606;32;20160;-67
2022/07/27 04:54:19;;;;;;;5.60;1.08;;;11.70;99.90;;;;;;7352050;32;20165;-67
2022/07/27 04:58:21;;;;;;;6.03;1.00;;;12.10;99.90;;;;;;7345324;32;20127;-67
2022/07/27 05:02:25;;;;;;;3.20;1.10;;;12.70;99.90;;;;;;7357546;32;20129;-67
2022/07/27 05:06:26;;;;;;;2.95;0.90;;;13.30;99.90;;;;;;7358285;32;20126;-67
2022/07/27 05:10:28;;;;;;;5.62;1.33;;;13.80;99.90;;;;;;7357289;32;20119;-66
2022/07/27 05:14:30;;;;;;;4.18;1.10;;;14.40;99.90;;;;;;7356929;32;20489;-67
2022/07/27 05:18:46;;;;;;;3.58;0.75;;;14.90;99.90;;;;;;7356857;32;20166;-67
2022/07/27 05:22:48;;;;;;;3.72;1.23;;;15.30;99.90;;;;;;7346011;32;20175;-68
2022/07/27 05:26:58;;;;;;;3.08;1.05;;;15.70;99.90;;;;;;7339191;32;20208;-68
2022/07/27 05:30:59;;;;;;;5.53;1.50;;;15.90;99.90;;;;;;7362298;32;20129;-67
2022/07/27 05:35:01;;;;;;;4.70;1.00;;;15.30;99.90;;;;;;7361395;32;20249;-67
2022/07/27 05:39:03;;;;;;;3.05;1.30;;;14.90;99.90;;;;;;7342633;32;20111;-68
2022/07/27 05:43:05;;;;;;;4.50;1.10;;;14.50;99.90;;;;;;7337248;32;20115;-67
2022/07/27 05:47:07;;;;;;;3.83;1.33;;;14.40;99.90;;;;;;7336903;32;20773;-67
2022/07/27 05:51:12;;;;;;;3.72;1.37;;;14.30;99.90;;;;;;7335484;32;20549;-67
2022/07/27 05:55:14;;;;;;;3.90;0.90;;;14.20;99.90;;;;;;7336719;32;20247;-68
2022/07/27 05:59:15;;;;;;;5.03;1.05;;;14.20;99.90;;;;;;7355465;32;20171;-67
2022/07/27 06:03:17;;;;;;;4.30;1.65;;;14.20;99.90;;;;;;7361379;32;20874;-68
2022/07/27 06:11:40;;;;;;;5.03;1.00;;;14.20;99.90;;;;;;7361081;32;20111;-67
2022/07/27 06:15:42;;;;;;;2.45;1.27;;;14.20;99.90;;;;;;7360554;32;20209;-68
2022/07/27 06:19:44;;;;;;;7.62;1.00;;;14.40;99.90;;;;;;7360408;32;20180;-66
2022/07/27 06:23:47;;;;;;;3.40;0.88;;;14.50;99.90;;;;;;7361733;32;20527;-67
2022/07/27 06:27:49;;;;;;;4.87;1.02;;;14.80;99.90;;;;;;7361060;32;21016;-67
2022/07/27 06:31:51;;;;;;;3.50;0.85;;;15.40;99.90;;;;;;7361657;32;20107;-67
2022/07/27 06:35:58;;;;;;;5.22;0.95;;;16.20;99.90;;;;;;7360193;32;20125;-68
2022/07/27 06:40:03;;;;;;;5.22;1.00;;;17.20;99.90;;;;;;7360047;32;20228;-68
2022/07/27 06:44:05;;;;;;;6.03;0.93;;;18.60;99.90;;;;;;7360067;32;20165;-67
2022/07/27 06:48:06;;;;;;;7.05;1.08;;;18.90;99.90;;;;;;7359924;32;20206;-68
2022/07/27 06:52:08;;;;;;;6.18;1.33;;;19.00;99.90;;;;;;7360087;32;20470;-68
2022/07/27 06:56:10;;;;;;;6.95;1.12;;;20.00;99.90;;;;;;7342802;32;20143;-68
2022/07/27 07:00:13;;;;;;;3.42;0.80;;;19.50;99.90;;;;;;7334769;32;20277;-67
2022/07/27 07:04:15;;;;;;;4.47;0.80;;;19.80;99.90;;;;;;7335074;32;20127;-68
2022/07/27 07:08:16;;;;;;;4.20;1.10;;;19.40;99.90;;;;;;7334166;32;20261;-68
2022/07/27 07:12:18;;;;;;;4.07;0.93;;;18.30;99.90;;;;;;7333814;32;20183;-67
2022/07/27 07:16:20;;;;;;;5.85;1.00;;;18.20;99.90;;;;;;7334108;32;20116;-68
2022/07/27 07:20:22;;;;;;;4.30;0.60;;;18.00;99.90;;;;;;7333813;32;20233;-68
2022/07/27 07:24:24;;;;;;;4.97;0.70;;;17.80;99.90;;;;;;7334773;32;20107;-67
2022/07/27 07:28:25;;;;;;;5.10;0.80;;;17.50;99.90;;;;;;7333583;32;20425;-68
2022/07/27 07:32:27;;;;;;;5.43;0.70;;;17.20;99.90;;;;;;7334886;32;20501;-68
2022/07/27 07:36:34;;;;;;;5.53;0.77;;;17.30;99.90;;;;;;7334254;32;20126;-68
2022/07/27 07:40:36;;;;;;;4.50;0.75;;;17.70;99.90;;;;;;7333258;32;20114;-67
2022/07/27 07:44:46;;;;;;;4.12;0.85;;;17.80;99.90;;;;;;7333892;32;20174;-68
2022/07/27 07:48:47;;;;;;;3.75;0.73;;;17.70;99.90;;;;;;7332829;32;20304;-68
2022/07/27 07:52:51;;;;;;;2.40;0.80;;;17.60;99.90;;;;;;7333596;32;20512;-67
2022/07/27 07:56:52;;;;;;;6.10;1.10;;;17.50;99.90;;;;;;7351155;32;20320;-67
2022/07/27 08:00:54;;;;;;;7.72;0.50;;;17.40;99.90;;;;;;7332673;32;20561;-68
2022/07/27 08:04:56;;;;;;;3.62;0.50;;;17.30;99.90;;;;;;7333631;32;20107;-67
2022/07/27 08:08:58;;;;;;;2.47;0.60;;;17.50;99.90;;;;;;7332866;32;20128;-67
2022/07/27 08:12:59;;;;;;;3.58;0.60;;;17.50;99.90;;;;;;7331914;32;20455;-68
2022/07/27 08:17:01;;;;;;;4.78;0.65;;;17.40;99.90;;;;;;7333161;32;20421;-67
2022/07/27 08:21:03;;;;;;;3.85;0.60;;;17.40;99.90;;;;;;7331846;32;20153;-68
2022/07/27 08:25:05;;;;;;;3.33;0.50;;;17.80;99.90;;;;;;7333222;32;20300;-67
2022/07/27 08:29:07;;;;;;;2.58;0.50;;;17.80;99.90;;;;;;7332142;32;20108;-68
2022/07/27 08:33:15;;;;;;;2.03;0.47;;;17.60;99.90;;;;;;7332790;32;20221;-68
2022/07/27 08:37:17;;;;;;;4.97;0.70;;;18.30;99.90;;;;;;7332987;32;20520;-68
2022/07/27 08:41:23;;;;;;;5.82;0.50;;;19.30;99.90;;;;;;7331900;32;20183;-67
2022/07/27 08:45:25;;;;;;;4.53;0.55;;;20.00;99.90;;;;;;7332245;32;20524;-67
2022/07/27 08:49:29;;;;;;;4.97;0.40;;;19.80;99.90;;;;;;7331479;32;20164;-66
2022/07/27 08:53:45;;;;;;;3.45;0.60;;;19.70;99.90;;;;;;7334199;32;20108;-67
2022/07/27 08:57:54;;;;;;;1.92;0.60;;;19.60;99.90;;;;;;7346312;32;20492;-67
2022/07/27 09:02:07;;;;;;;2.90;0.70;;;18.90;99.90;;;;;;7331648;32;20140;-67
2022/07/27 09:06:10;;;;;;;5.57;0.57;;;18.80;99.90;;;;;;7332278;32;20186;-66
2022/07/27 09:10:28;;;;;;;3.67;0.52;;;18.60;99.90;;;;;;7331657;32;20172;-66
2022/07/27 09:14:32;;;;;;;3.37;0.40;;;18.60;99.90;;;;;;7330937;32;20534;-67
2022/07/27 09:18:38;;;;;;;4.75;0.60;;;18.40;99.90;;;;;;7331107;32;20588;-67
2022/07/27 09:22:54;;;;;;;1.33;0.35;;;18.00;99.90;;;;;;7332105;32;20161;-66
2022/07/27 09:27:20;;;;;;;3.20;0.45;;;18.30;99.90;;;;;;7332164;32;20420;-67
2022/07/27 09:31:23;;;;;;;3.22;0.50;;;19.70;99.90;;;;;;7331288;32;20293;-66
2022/07/27 09:35:34;;;;;;;3.40;0.93;;;19.70;99.90;;;;;;7331839;32;20538;-66
2022/07/27 09:39:37;;;;;;;1.77;0.50;;;19.40;99.90;;;;;;7330936;32;20120;-66
2022/07/27 09:43:54;;;;;;;1.80;0.32;;;19.40;99.90;;;;;;7331753;32;20135;-67
2022/07/27 09:48:19;;;;;;;1.92;0.52;;;19.30;99.90;;;;;;7331060;32;20100;-67
2022/07/27 09:52:26;;;;;;;3.42;0.52;;;19.20;99.90;;;;;;7331802;32;20198;-67
2022/07/27 09:56:30;;;;;;;2.87;0.50;;;19.40;99.90;;;;;;7349230;32;20110;-66
2022/07/27 10:00:32;;;;;;;1.60;0.32;;;19.70;99.90;;;;;;7330777;32;20711;-67
2022/07/27 10:04:34;;;;;;;2.58;0.37;;;19.80;99.90;;;;;;7331649;32;20447;-66
2022/07/27 10:08:47;;;;;;;5.28;0.50;;;19.60;99.90;;;;;;7330688;32;20609;-67
2022/07/27 10:12:51;;;;;;;4.55;0.80;;;19.90;99.90;;;;;;7334095;32;20157;-66
2022/07/27 10:16:56;;;;;;;1.77;0.40;;;19.80;99.90;;;;;;7336395;32;20529;-68
2022/07/27 10:21:05;;;;;;;1.83;0.30;;;20.40;99.90;;;;;;7334868;32;20597;-66
2022/07/27 10:25:07;;;;;;;3.83;0.60;;;21.10;99.90;;;;;;7336241;32;20215;-67
2022/07/27 10:29:12;;;;;;;5.47;0.60;;;21.80;99.90;;;;;;7335057;32;20125;-67
2022/07/27 10:33:36;;;;;;;5.25;0.82;;;21.50;99.90;;;;;;7336254;32;20107;-67
2022/07/27 10:37:38;;;;;;;2.78;0.60;;;21.80;99.90;;;;;;7335369;32;20262;-67
2022/07/27 10:41:42;;;;;;;3.60;0.60;;;21.30;99.90;;;;;;7334851;32;20135;-67
2022/07/27 10:45:47;;;;;;;5.07;0.73;;;20.70;99.90;;;;;;7335618;32;20516;-67
2022/07/27 10:50:15;;;;;;;3.25;0.70;;;20.20;99.90;;;;;;7334301;32;20256;-67
2022/07/27 10:54:25;;;;;;;4.20;1.12;;;20.10;99.90;;;;;;7340363;32;20111;-67
2022/07/27 10:58:28;;;;;;;2.87;0.47;;;19.70;99.90;;;;;;7345023;32;20597;-67
2022/07/27 11:02:41;;;;;;;3.30;0.70;;;19.40;99.90;;;;;;7334636;32;20175;-67
2022/07/27 11:06:44;;;;;;;4.25;0.70;;;19.40;99.90;;;;;;7334960;32;20622;-67
2022/07/27 11:11:08;;;;;;;6.25;0.90;;;19.40;99.90;;;;;;7334212;32;20143;-67
2022/07/27 11:15:10;;;;;;;5.45;0.70;;;19.40;99.90;;;;;;7333009;32;20118;-67
2022/07/27 11:19:12;;;;;;;1.83;0.50;;;19.30;99.90;;;;;;7334114;32;20471;-68
2022/07/27 11:23:19;;;;;;;5.45;0.45;;;19.40;99.90;;;;;;7334084;32;20316;-67
2022/07/27 11:27:50;;;;;;;4.05;0.60;;;19.50;99.90;;;;;;7334378;32;20100;-68
2022/07/27 11:31:54;;;;;;;1.23;0.43;;;20.10;99.90;;;;;;7333877;32;20116;-67
2022/07/27 11:36:05;;;;;;;3.33;0.65;;;20.70;99.90;;;;;;7334268;32;20475;-67
2022/07/27 11:40:08;;;;;;;4.00;0.60;;;20.60;99.90;;;;;;7333490;32;20160;-67
2022/07/27 11:44:29;;;;;;;3.33;0.40;;;20.40;99.90;;;;;;7333798;32;20111;-67
2022/07/27 11:48:31;;;;;;;2.80;0.65;;;20.30;99.90;;;;;;7333251;32;20157;-67
2022/07/27 11:52:56;;;;;;;2.20;0.50;;;20.00;99.90;;;;;;7334196;32;20224;-67
2022/07/27 11:57:17;;;;;;;3.37;0.60;;;19.70;99.90;;;;;;7351250;32;20107;-67
2022/07/27 12:01:30;;;;;;;3.37;0.62;;;19.50;99.90;;;;;;7332902;32;20107;-67
2022/07/27 12:05:33;;;;;;;5.53;0.80;;;19.40;99.90;;;;;;7333321;32;20175;-67
2022/07/27 12:09:46;;;;;;;1.27;0.60;;;19.90;99.90;;;;;;7332669;32;20261;-67
2022/07/27 12:13:56;;;;;;;4.20;0.60;;;20.10;99.90;;;;;;7332110;32;20112;-67
2022/07/27 12:17:58;;;;;;;3.78;0.43;;;20.00;99.90;;;;;;7331969;32;20112;-67
2022/07/27 12:22:01;;;;;;;2.85;0.60;;;20.00;99.90;;;;;;7333352;32;20104;-67
2022/07/27 12:26:19;;;;;;;2.72;0.65;;;19.90;99.90;;;;;;7333516;32;20111;-67
2022/07/27 12:30:33;;;;;;;2.45;0.50;;;19.80;99.90;;;;;;7332446;32;20135;-67
2022/07/27 12:34:35;;;;;;;4.85;0.50;;;20.00;99.90;;;;;;7332700;32;20119;-67
2022/07/27 12:38:49;;;;;;;1.75;0.80;;;19.90;99.90;;;;;;7332111;32;20115;-67
2022/07/27 12:43:03;;;;;;;4.18;0.75;;;20.10;99.90;;;;;;7331956;32;20185;-67
2022/07/27 12:51:28;;;;;;;1.40;0.40;;;20.90;99.90;;;;;;7331309;32;20207;-67
2022/07/27 12:55:31;;;;;;;0.93;0.50;;;20.60;99.90;;;;;;7345526;32;20171;-67
2022/07/27 12:59:32;;;;;;;1.50;0.50;;;20.60;99.90;;;;;;7335818;32;20500;-67
2022/07/27 13:03:34;;;;;;;2.37;0.50;;;20.40;99.90;;;;;;7332578;32;20608;-67
2022/07/27 13:07:39;;;;;;;4.43;0.50;;;20.30;99.90;;;;;;7331599;32;20125;-67
2022/07/27 13:11:41;;;;;;;4.47;0.37;;;20.40;99.90;;;;;;7331276;32;20135;-67
2022/07/27 13:15:48;;;;;;;2.22;1.23;;;20.40;99.90;;;;;;7330686;32;20100;-66
2022/07/27 13:19:50;;;;;;;2.83;0.70;;;20.40;99.90;;;;;;7331163;32;20167;-66
2022/07/27 13:23:52;;;;;;;2.62;0.70;;;20.50;99.90;;;;;;7332426;32;20190;-66
2022/07/27 13:27:55;;;;;;;2.50;0.40;;;20.90;99.10;;;;;;7332159;32;20154;-67
2022/07/27 13:31:57;;;;;;;1.58;0.70;;;21.20;96.00;;;;;;7332474;32;20616;-66
2022/07/27 13:35:58;;;;;;;2.53;0.77;;;21.60;96.00;;;;;;7332589;32;20258;-66
2022/07/27 13:40:02;;;;;;;2.37;0.50;;;22.10;96.00;;;;;;7331164;32;20107;-66
2022/07/27 13:44:05;;;;;;;3.28;0.60;;;22.90;92.50;;;;;;7331844;32;20116;-67
2022/07/27 13:48:06;;;;;;;2.05;0.40;;;22.60;92.70;;;;;;7336785;32;20163;-67
2022/07/27 13:52:11;;;;;;;3.47;0.57;;;21.80;93.40;;;;;;7337152;32;20133;-67
2022/07/27 13:56:12;;;;;;;4.10;1.92;;;21.60;95.30;;;;;;7354338;32;20130;-67
2022/07/27 14:00:15;;;;;;;1.95;0.77;;;21.00;96.50;;;;;;7336486;32;20167;-67
2022/07/27 14:04:18;;;;;;;3.12;0.55;;;20.90;95.00;;;;;;7337492;32;20171;-67
2022/07/27 14:08:20;;;;;;;8.00;4.50;;;20.90;98.60;;;;;;7336107;32;20158;-67
2022/07/27 14:12:22;;;;;;;3.65;1.00;;;20.80;98.10;;;;;;7336372;32;20138;-67
2022/07/27 14:16:24;;;;;;;4.65;0.90;;;20.80;97.10;;;;;;7335810;32;20255;-67
2022/07/27 14:20:26;;;;;;;2.17;0.70;;;21.00;96.40;;;;;;7335193;32;20115;-67
2022/07/27 14:24:28;;;;;;;3.03;0.55;;;20.80;96.10;;;;;;7336745;32;20120;-67
2022/07/27 14:28:30;;;;;;;2.25;0.90;;;20.70;96.20;;;;;;7335723;32;20474;-67
2022/07/27 14:32:33;;;;;;;1.25;0.60;;;21.00;96.30;;;;;;7336736;32;20112;-67
2022/07/27 14:36:36;;;;;;;3.10;0.77;;;21.40;97.50;;;;;;7336218;32;20531;-67
2022/07/27 14:40:38;;;;;;;4.55;0.88;;;21.20;94.60;;;;;;7335334;32;20111;-67
2022/07/27 14:44:40;;;;;;;3.78;0.70;;;21.10;95.00;;;;;;7335385;32;20187;-68
2022/07/27 14:48:42;;;;;;;3.58;0.77;;;21.20;95.10;;;;;;7335161;32;20182;-67
2022/07/27 14:53:04;;;;;;;1.67;0.43;;;21.80;94.70;;;;;;7335698;32;20194;-68
2022/07/27 14:57:05;;;;;;;4.65;0.62;;;22.50;92.20;;;;;;7352743;32;20123;-67
2022/07/27 15:01:07;;;;;;;2.85;0.77;;;22.80;90.20;;;;;;7334464;32;20170;-67
2022/07/27 15:05:11;;;;;;;4.40;0.80;;;23.30;88.30;;;;;;7335413;32;20107;-66
2022/07/27 15:09:12;;;;;;;4.93;2.10;;;23.20;85.20;;;;;;7334508;32;20131;-67
2022/07/27 15:13:15;;;;;;;4.12;1.10;;;22.70;90.10;;;;;;7333407;32;20112;-67
2022/07/27 15:17:18;;;;;;;1.62;0.52;;;22.10;90.00;;;;;;7334931;32;20179;-67
2022/07/27 15:21:20;;;;;;;3.10;1.52;;;21.70;89.20;;;;;;7333478;32;20553;-66
2022/07/27 15:25:21;;;;;;;3.37;1.45;;;21.10;91.60;;;;;;7333326;32;20127;-65
2022/07/27 15:29:23;;;;;;;1.52;0.50;;;20.70;92.20;;;;;;7333864;32;20127;-67
2022/07/27 15:33:25;;;;;;;4.80;1.17;;;20.60;92.10;;;;;;7334559;32;20170;-67
2022/07/27 15:37:27;;;;;;;5.75;1.00;;;20.30;91.20;;;;;;7334192;32;20130;-67
2022/07/27 15:41:29;;;;;;;3.03;1.40;;;20.40;93.90;;;;;;7333993;32;20119;-67
2022/07/27 15:45:31;;;;;;;3.25;1.15;;;20.20;94.90;;;;;;7334218;32;20112;-67
2022/07/27 15:49:33;;;;;;;1.77;0.57;;;20.20;94.50;;;;;;7333857;32;20120;-67
2022/07/27 15:53:35;;;;;;;2.87;0.68;;;20.20;95.70;;;;;;7334238;32;20175;-66
2022/07/27 15:57:36;;;;;;;1.35;0.60;;;20.00;93.50;;;;;;7349796;32;20100;-67
2022/07/27 16:01:39;;;;;;;7.00;0.95;;;19.90;94.40;;;;;;7333844;32;20186;-66
2022/07/27 16:05:42;;;;;;;3.12;0.50;;;19.70;95.70;;;;;;7334392;32;20171;-67
2022/07/27 16:09:44;;;;;;;3.33;0.62;;;19.80;96.50;;;;;;7332676;32;20195;-67
2022/07/27 16:13:47;;;;;;;2.47;0.62;;;20.00;97.30;;;;;;7332650;32;20455;-67
2022/07/27 16:17:48;;;;;;;2.20;0.70;;;20.30;94.60;;;;;;7333286;32;20127;-67
2022/07/27 16:21:50;;;;;;;4.72;0.70;;;20.40;95.20;;;;;;7333358;32;20186;-67
2022/07/27 16:25:57;;;;;;;2.22;0.62;;;20.60;93.10;;;;;;7333432;32;20128;-67
2022/07/27 16:30:08;;;;;;;2.25;0.60;;;20.60;94.50;;;;;;7332719;32;20172;-66
2022/07/27 16:34:10;;;;;;;2.83;0.70;;;20.60;91.60;;;;;;7333378;32;20111;-67
2022/07/27 16:38:12;;;;;;;4.37;0.70;;;20.60;93.70;;;;;;7332297;32;20560;-67
2022/07/27 16:42:13;;;;;;;1.67;0.60;;;20.70;90.90;;;;;;7332965;32;20187;-67
2022/07/27 16:46:15;;;;;;;3.05;0.80;;;20.70;91.00;;;;;;7332860;32;20198;-67
2022/07/27 16:50:17;;;;;;;1.52;0.50;;;20.50;91.00;;;;;;7331813;32;20127;-67
2022/07/27 16:54:19;;;;;;;1.15;0.47;;;20.50;90.30;;;;;;7337734;32;20130;-67
2022/07/27 16:58:21;;;;;;;2.50;0.70;;;20.60;89.40;;;;;;7341467;32;20183;-67
2022/07/27 17:02:22;;;;;;;3.12;0.68;;;20.60;89.00;;;;;;7331837;32;20513;-67
2022/07/27 17:06:25;;;;;;;3.95;0.57;;;20.60;90.80;;;;;;7332562;32;20212;-67
2022/07/27 17:10:27;;;;;;;4.15;0.70;;;20.60;90.40;;;;;;7331678;32;20231;-67
2022/07/27 17:14:29;;;;;;;4.18;0.57;;;20.90;90.10;;;;;;7330585;32;20806;-67
2022/07/27 17:18:34;;;;;;;2.55;0.70;;;20.80;89.20;;;;;;7331952;32;20096;-67
2022/07/27 17:22:56;;;;;;;1.73;0.70;;;20.70;90.80;;;;;;7331446;32;20103;-67
2022/07/27 17:26:57;;;;;;;3.90;0.73;;;20.50;91.10;;;;;;7332177;32;20175;-67
2022/07/27 17:30:59;;;;;;;4.62;0.62;;;20.20;91.10;;;;;;7331287;32;20168;-66
2022/07/27 17:35:01;;;;;;;4.47;0.80;;;20.10;92.20;;;;;;7331799;32;20564;-67
2022/07/27 17:39:04;;;;;;;5.05;0.82;;;19.90;93.20;;;;;;7330020;32;20142;-66
2022/07/27 17:43:06;;;;;;;4.37;0.60;;;19.80;93.10;;;;;;7332076;32;20190;-66
2022/07/27 17:47:08;;;;;;;6.03;1.08;;;19.80;92.90;;;;;;7332455;32;20140;-67
2022/07/27 17:51:10;;;;;;;3.33;0.70;;;19.70;93.20;;;;;;7331356;32;20447;-66
2022/07/27 17:55:12;;;;;;;3.03;0.95;;;19.60;93.70;;;;;;7341533;32;20127;-66
2022/07/27 17:59:14;;;;;;;4.05;0.80;;;19.60;93.50;;;;;;7337516;32;20133;-66
2022/07/27 18:03:36;;;;;;;4.95;0.77;;;19.60;93.80;;;;;;7331957;32;20133;-66
2022/07/27 18:07:38;;;;;;;4.03;0.80;;;19.50;93.40;;;;;;7331014;32;20251;-67
2022/07/27 18:11:41;;;;;;;2.40;0.75;;;19.40;94.20;;;;;;7331345;32;20103;-66
2022/07/27 18:15:46;;;;;;;3.60;1.05;;;19.40;94.70;;;;;;7331369;32;20166;-67
2022/07/27 18:19:48;;;;;;;3.55;0.75;;;19.30;95.20;;;;;;7330786;32;20124;-67
2022/07/27 18:23:50;;;;;;;4.68;0.90;;;19.20;96.70;;;;;;7332088;32;20115;-67
2022/07/27 18:27:51;;;;;;;1.85;0.77;;;19.10;99.20;;;;;;7330912;32;20168;-67
2022/07/27 18:31:53;;;;;;;3.10;0.90;;;19.00;99.90;;;;;;7334044;32;20800;-65
2022/07/27 18:35:55;;;;;;;4.43;0.90;;;18.80;99.90;;;;;;7336207;32;20268;-67
2022/07/27 18:39:58;;;;;;;3.00;0.73;;;18.70;99.90;;;;;;7334936;32;20127;-66
2022/07/27 18:44:00;;;;;;;3.33;1.00;;;18.50;99.90;;;;;;7337413;32;20607;-67
2022/07/27 18:48:02;;;;;;;4.32;0.95;;;18.50;99.90;;;;;;7334898;32;20140;-66
2022/07/27 18:52:04;;;;;;;2.45;0.77;;;18.30;99.90;;;;;;7335512;32;20176;-67
2022/07/27 18:56:06;;;;;;;9.85;1.00;;;18.30;99.90;;;;;;7352625;32;20148;-67
2022/07/27 19:00:08;;;;;;;3.53;0.93;;;18.20;99.90;;;;;;7334423;32;20168;-66
2022/07/27 19:04:11;;;;;;;2.35;1.12;;;18.20;99.90;;;;;;7335490;32;20769;-66
2022/07/27 19:08:16;;;;;;;2.92;0.90;;;18.10;99.90;;;;;;7334566;32;20172;-67
2022/07/27 19:12:18;;;;;;;5.45;0.93;;;18.00;99.90;;;;;;7334914;32;20127;-68
2022/07/27 19:16:19;;;;;;;3.70;1.00;;;17.90;99.90;;;;;;7334425;32;20386;-67
2022/07/27 19:20:21;;;;;;;3.80;0.80;;;17.90;99.90;;;;;;7334492;32;20116;-67
2022/07/27 19:24:23;;;;;;;3.22;1.20;;;17.80;99.90;;;;;;7335365;32;20505;-66
2022/07/27 19:28:25;;;;;;;4.20;0.80;;;17.70;99.90;;;;;;7334454;32;20237;-67
2022/07/27 19:32:27;;;;;;;4.07;1.05;;;17.60;99.90;;;;;;7334537;32;20124;-67
2022/07/27 19:36:29;;;;;;;4.57;1.08;;;17.50;99.90;;;;;;7336229;32;20267;-66
2022/07/27 19:40:31;;;;;;;5.00;0.90;;;17.50;99.90;;;;;;7334134;32;20174;-62
2022/07/27 19:44:45;;;;;;;3.30;0.80;;;17.40;99.90;;;;;;7333894;32;20858;-62
2022/07/27 19:48:47;;;;;;;2.33;0.80;;;17.20;99.90;;;;;;7333248;32;20192;-62
2022/07/27 19:52:49;;;;;;;7.12;1.05;;;17.10;99.90;;;;;;7334261;32;20140;-62
2022/07/27 19:56:50;;;;;;;6.35;1.20;;;17.00;99.90;;;;;;7351961;32;20127;-63
2022/07/27 20:00:52;;;;;;;4.62;1.10;;;16.80;99.90;;;;;;7333529;32;20167;-62
2022/07/27 20:04:54;;;;;;;5.47;1.25;;;16.60;99.90;;;;;;7334134;32;20112;-62
2022/07/27 20:08:58;;;;;;;3.10;1.08;;;16.50;99.90;;;;;;7333561;32;20238;-62
2022/07/27 20:13:01;;;;;;;5.15;1.20;;;16.30;99.90;;;;;;7332741;32;21076;-62
2022/07/27 20:17:04;;;;;;;3.45;0.90;;;16.10;99.90;;;;;;7333723;32;20127;-61
2022/07/27 20:21:06;;;;;;;5.05;1.23;;;16.00;99.90;;;;;;7331087;32;20163;-62
2022/07/27 20:25:23;;;;;;;3.87;1.43;;;15.80;99.90;;;;;;7333992;32;20157;-62
2022/07/27 20:29:28;;;;;;;3.78;0.95;;;15.60;99.90;;;;;;7333169;32;20164;-62
2022/07/27 20:33:32;;;;;;;5.70;1.08;;;15.50;99.90;;;;;;7333518;32;20322;-62
2022/07/27 20:37:34;;;;;;;3.20;0.90;;;15.40;99.90;;;;;;7332907;32;20555;-62
2022/07/27 20:41:35;;;;;;;2.00;0.80;;;15.30;99.90;;;;;;7332895;32;20570;-61
2022/07/27 20:45:37;;;;;;;6.22;0.90;;;15.30;99.90;;;;;;7333408;32;20203;-62
2022/07/27 20:49:39;;;;;;;2.97;0.80;;;15.30;99.90;;;;;;7332056;32;20517;-62
2022/07/27 20:53:42;;;;;;;4.45;0.90;;;15.30;99.90;;;;;;7333932;32;20168;-62
2022/07/27 20:57:44;;;;;;;3.50;0.80;;;15.30;99.90;;;;;;7348102;32;20179;-61
2022/07/27 21:01:45;;;;;;;2.17;0.70;;;15.30;99.90;;;;;;7333066;32;20636;-62
2022/07/27 21:05:47;;;;;;;4.70;0.80;;;15.30;99.90;;;;;;7333448;32;20172;-62
2022/07/27 21:09:49;;;;;;;3.08;1.08;;;15.20;99.90;;;;;;7331657;32;20115;-62
2022/07/27 21:13:52;;;;;;;2.03;0.90;;;15.20;99.90;;;;;;7331575;32;20119;-61
2022/07/27 21:17:54;;;;;;;2.92;0.80;;;15.00;99.90;;;;;;7332271;32;20168;-62
2022/07/27 21:21:56;;;;;;;3.80;0.77;;;14.80;99.90;;;;;;7332494;32;20255;-62